createdAt,value
2024-04-09T00:01:44.627Z,100435.09
2024-04-09T00:04:12.152Z,100413.66
2024-04-09T00:06:39.589Z,100418.34
2024-04-09T00:09:07.559Z,100428.94
2024-04-09T00:11:37.137Z,100429.44
2024-04-09T00:14:05.827Z,100426.22
2024-04-09T00:16:34.939Z,100433.91
2024-04-09T00:19:02.703Z,100435.25
2024-04-09T00:21:31.134Z,100442.66
2024-04-09T00:23:59.884Z,100433.16
2024-04-09T00:26:30.616Z,100433.56
2024-04-09T00:28:57.922Z,100435.50
2024-04-09T00:31:28.378Z,100421.53
2024-04-09T00:33:56.835Z,100415.72
2024-04-09T00:36:24.437Z,100398.56
2024-04-09T00:38:55.813Z,100393.38
2024-04-09T00:41:23.155Z,100394.38
2024-04-09T00:43:50.442Z,100400.59
2024-04-09T00:46:18.103Z,100410.03
2024-04-09T00:48:45.767Z,100418.72
2024-04-09T00:51:15.635Z,100414.91
2024-04-09T00:53:44.455Z,100410.31
2024-04-09T00:56:12.752Z,100410.75
2024-04-09T00:58:40.302Z,100402.28
2024-04-09T01:01:07.719Z,100409.59
2024-04-09T01:03:35.273Z,100409.78
2024-04-09T01:06:03.833Z,100401.50
2024-04-09T01:08:31.242Z,100415.41
2024-04-09T01:10:58.601Z,100416.72
2024-04-09T01:13:25.939Z,100419.13
2024-04-09T01:15:53.218Z,100416.81
2024-04-09T01:18:20.587Z,100426.16
2024-04-09T01:20:48.126Z,100415.66
2024-04-09T01:23:15.481Z,100415.28
2024-04-09T01:25:44.104Z,100403.97
2024-04-09T01:28:11.452Z,100397.28
2024-04-09T01:30:39.387Z,100385.22
2024-04-09T01:33:07.117Z,100378.00
2024-04-09T01:35:34.518Z,100363.88
2024-04-09T01:38:02.091Z,100341.41
2024-04-09T01:40:29.437Z,100351.81
2024-04-09T01:42:56.728Z,100360.63
2024-04-09T01:45:24.127Z,100365.84
2024-04-09T01:47:51.964Z,100370.91
2024-04-09T01:50:19.642Z,100362.06
2024-04-09T01:52:49.612Z,100357.09
2024-04-09T01:55:18.711Z,100357.94
2024-04-09T01:57:46.050Z,100361.47
2024-04-09T02:00:14.331Z,100364.28
2024-04-09T02:02:44.964Z,100370.09
2024-04-09T02:05:14.163Z,100377.94
2024-04-09T02:07:42.337Z,100389.88
2024-04-09T02:10:10.762Z,100379.88
2024-04-09T02:12:39.868Z,100386.38
2024-04-09T02:15:08.174Z,100364.97
2024-04-09T02:17:36.850Z,100357.34
2024-04-09T02:20:05.442Z,100358.34
2024-04-09T02:22:33.272Z,100345.63
2024-04-09T02:25:00.616Z,100338.97
2024-04-09T02:27:28.423Z,100347.00
2024-04-09T02:29:58.258Z,100346.03
2024-04-09T02:32:25.650Z,100352.72
2024-04-09T02:34:52.963Z,100344.59
2024-04-09T02:37:20.289Z,100340.81
2024-04-09T02:39:47.643Z,100337.41
2024-04-09T02:42:15.345Z,100348.69
2024-04-09T02:44:42.849Z,100348.88
2024-04-09T02:47:10.241Z,100349.53
2024-04-09T02:49:37.523Z,100337.69
2024-04-09T02:52:05.428Z,100344.38
2024-04-09T02:54:32.954Z,100338.81
2024-04-09T02:57:00.422Z,100338.59
2024-04-09T02:59:27.732Z,100331.47
2024-04-09T03:01:55.211Z,100326.97
2024-04-09T03:04:22.851Z,100326.56
2024-04-09T03:06:50.387Z,100322.91
2024-04-09T03:09:17.824Z,100314.88
2024-04-09T03:11:45.213Z,100323.50
2024-04-09T03:14:13.422Z,100321.25
2024-04-09T03:16:41.156Z,100316.41
2024-04-09T03:19:08.642Z,100322.78
2024-04-09T03:21:36.513Z,100309.91
2024-04-09T03:24:04.413Z,100303.75
2024-04-09T03:26:31.825Z,100298.63
2024-04-09T03:28:59.122Z,100293.13
2024-04-09T03:31:29.990Z,100300.78
2024-04-09T03:33:57.937Z,100306.03
2024-04-09T03:36:25.333Z,100309.84
2024-04-09T03:38:53.842Z,100311.22
2024-04-09T03:41:21.175Z,100313.88
2024-04-09T03:43:48.531Z,100309.09
2024-04-09T03:46:17.554Z,100300.31
2024-04-09T03:48:46.984Z,100307.56
2024-04-09T03:51:16.129Z,100309.63
2024-04-09T03:53:44.132Z,100300.19
2024-04-09T03:56:11.592Z,100288.50
2024-04-09T03:58:41.607Z,100289.69
2024-04-09T04:01:10.427Z,100296.38
2024-04-09T04:03:42.475Z,100279.84
2024-04-09T04:06:10.183Z,100282.44
2024-04-09T04:08:39.875Z,100266.78
2024-04-09T04:11:08.933Z,100263.78
2024-04-09T04:13:37.394Z,100250.19
2024-04-09T04:16:15.005Z,100231.16
2024-04-09T04:18:45.810Z,100229.28
2024-04-09T04:21:14.886Z,100218.09
2024-04-09T04:23:42.798Z,100223.53
2024-04-09T04:26:14.604Z,100211.28
2024-04-09T04:28:43.798Z,100218.19
2024-04-09T04:31:13.010Z,100211.06
2024-04-09T04:33:41.343Z,100194.56
2024-04-09T04:36:12.508Z,100188.34
2024-04-09T04:38:41.997Z,100192.34
2024-04-09T04:41:09.295Z,100190.47
2024-04-09T04:43:42.725Z,100193.22
2024-04-09T04:46:10.228Z,100189.34
2024-04-09T04:48:41.675Z,100201.59
2024-04-09T04:51:10.275Z,100203.78
2024-04-09T04:53:37.768Z,100199.91
2024-04-09T04:56:05.381Z,100223.28
2024-04-09T04:58:32.704Z,100220.19
2024-04-09T05:01:00.216Z,100204.16
2024-04-09T05:03:27.779Z,100206.53
2024-04-09T05:05:55.122Z,100218.47
2024-04-09T05:08:23.486Z,100220.19
2024-04-09T05:10:51.256Z,100220.19
2024-04-09T05:13:18.561Z,100231.22
2024-04-09T05:15:45.950Z,100229.75
2024-04-09T05:18:16.040Z,100223.44
2024-04-09T05:20:43.619Z,100227.81
2024-04-09T05:23:11.230Z,100216.91
2024-04-09T05:25:38.581Z,100213.94
2024-04-09T05:28:05.969Z,100224.94
2024-04-09T05:30:33.349Z,100215.31
2024-04-09T05:33:00.903Z,100221.63
2024-04-09T05:35:28.426Z,100230.75
2024-04-09T05:37:55.847Z,100230.41
2024-04-09T05:40:23.278Z,100226.88
2024-04-09T05:42:50.995Z,100219.84
2024-04-09T05:45:21.259Z,100228.44
2024-04-09T05:47:49.170Z,100232.34
2024-04-09T05:50:16.772Z,100241.88
2024-04-09T05:52:44.110Z,100243.47
2024-04-09T05:55:13.322Z,100241.63
2024-04-09T05:57:41.903Z,100242.88
2024-04-09T06:00:23.412Z,100259.84
2024-04-09T06:02:51.102Z,100291.28
2024-04-09T06:05:18.883Z,100326.75
2024-04-09T06:07:47.382Z,100330.56
2024-04-09T06:10:17.188Z,100337.13
2024-04-09T06:12:45.011Z,100349.72
2024-04-09T06:15:12.860Z,100343.19
2024-04-09T06:17:40.416Z,100342.06
2024-04-09T06:20:08.413Z,100339.91
2024-04-09T06:22:35.742Z,100346.00
2024-04-09T06:25:03.040Z,100346.44
2024-04-09T06:27:30.405Z,100365.94
2024-04-09T06:29:57.931Z,100377.53
2024-04-09T06:32:25.450Z,100403.72
2024-04-09T06:34:52.900Z,100398.91
2024-04-09T06:37:20.556Z,100395.81
2024-04-09T06:39:48.366Z,100401.31
2024-04-09T06:42:15.967Z,100405.47
2024-04-09T06:44:43.401Z,100404.69
2024-04-09T06:47:10.746Z,100413.50
2024-04-09T06:49:38.211Z,100413.75
2024-04-09T06:52:05.834Z,100414.66
2024-04-09T06:54:33.205Z,100415.59
2024-04-09T06:57:00.703Z,100408.84
2024-04-09T06:59:28.191Z,100397.00
2024-04-09T07:01:55.592Z,100381.16
2024-04-09T07:04:23.330Z,100378.66
2024-04-09T07:06:51.439Z,100383.94
2024-04-09T07:09:22.063Z,100381.97
2024-04-09T07:11:49.484Z,100390.34
2024-04-09T07:14:16.953Z,100416.44
2024-04-09T07:16:45.148Z,100430.44
2024-04-09T07:19:12.822Z,100432.06
2024-04-09T07:21:40.484Z,100435.50
2024-04-09T07:24:08.668Z,100435.06
2024-04-09T07:26:36.210Z,100440.13
2024-04-09T07:29:03.808Z,100429.19
2024-04-09T07:31:31.229Z,100444.03
2024-04-09T07:33:58.795Z,100448.88
2024-04-09T07:36:26.313Z,100467.94
2024-04-09T07:38:56.625Z,100448.28
2024-04-09T07:41:27.434Z,100454.59
2024-04-09T07:43:56.901Z,100473.31
2024-04-09T07:46:25.663Z,100485.16
2024-04-09T07:48:53.508Z,100492.38
2024-04-09T07:51:21.111Z,100487.06
2024-04-09T07:53:48.597Z,100491.56
2024-04-09T07:56:16.083Z,100488.00
2024-04-09T07:58:44.111Z,100478.25
2024-04-09T08:01:11.616Z,100466.50
2024-04-09T08:03:39.424Z,100464.31
2024-04-09T08:06:08.205Z,100454.56
2024-04-09T08:08:39.347Z,100445.38
2024-04-09T08:11:12.281Z,100440.91
2024-04-09T08:13:39.830Z,100441.03
2024-04-09T08:16:08.083Z,100441.41
2024-04-09T08:18:36.056Z,100451.41
2024-04-09T08:21:04.455Z,100457.41
2024-04-09T08:23:32.010Z,100464.31
2024-04-09T08:26:02.573Z,100481.34
2024-04-09T08:28:29.859Z,100477.66
2024-04-09T08:30:57.398Z,100487.34
2024-04-09T08:33:24.769Z,100477.78
2024-04-09T08:35:52.315Z,100466.41
2024-04-09T08:38:21.922Z,100489.38
2024-04-09T08:40:49.979Z,100489.63
2024-04-09T08:43:20.698Z,100479.03
2024-04-09T08:45:48.319Z,100444.41
2024-04-09T08:48:18.510Z,100423.13
2024-04-09T08:50:51.941Z,100416.75
2024-04-09T08:53:20.968Z,100423.66
2024-04-09T08:55:49.179Z,100415.63
2024-04-09T08:58:16.529Z,100429.91
2024-04-09T09:00:43.949Z,100446.63
2024-04-09T09:03:11.433Z,100466.06
2024-04-09T09:05:38.831Z,100482.91
2024-04-09T09:08:08.215Z,100490.00
2024-04-09T09:10:36.285Z,100491.88
2024-04-09T09:13:05.849Z,100491.13
2024-04-09T09:15:33.771Z,100481.47
2024-04-09T09:18:01.756Z,100480.91
2024-04-09T09:20:29.923Z,100447.91
2024-04-09T09:22:57.648Z,100466.09
2024-04-09T09:25:27.132Z,100492.34
2024-04-09T09:28:10.967Z,100486.03
2024-04-09T09:30:45.596Z,100501.88
2024-04-09T09:33:25.525Z,100494.59
2024-04-09T09:35:52.977Z,100510.47
2024-04-09T09:38:24.600Z,100559.00
2024-04-09T09:40:53.339Z,100558.19
2024-04-09T09:43:22.353Z,100580.84
2024-04-09T09:45:49.927Z,100586.25
2024-04-09T09:48:27.403Z,100581.31
2024-04-09T09:50:55.141Z,100588.91
2024-04-09T09:53:23.667Z,100616.88
2024-04-09T09:55:55.226Z,100617.81
2024-04-09T09:58:25.230Z,100620.00
2024-04-09T10:00:56.429Z,100650.97
2024-04-09T10:03:24.920Z,100653.06
2024-04-09T10:05:53.397Z,100638.88
2024-04-09T10:08:24.203Z,100587.78
2024-04-09T10:10:52.025Z,100572.78
2024-04-09T10:13:29.274Z,100608.59
2024-04-09T10:16:02.129Z,100653.94
2024-04-09T10:18:39.664Z,100661.22
2024-04-09T10:21:08.177Z,100665.13
2024-04-09T10:23:37.748Z,100682.19
2024-04-09T10:26:09.447Z,100666.97
2024-04-09T10:28:37.687Z,100652.56
2024-04-09T10:31:16.292Z,100649.47
2024-04-09T10:33:43.861Z,100639.00
2024-04-09T10:36:13.889Z,100636.34
2024-04-09T10:38:43.955Z,100632.44
2024-04-09T10:41:13.496Z,100630.78
2024-04-09T10:43:41.423Z,100633.91
2024-04-09T10:46:14.297Z,100652.47
2024-04-09T10:48:44.265Z,100652.22
2024-04-09T10:51:12.645Z,100669.41
2024-04-09T10:53:40.334Z,100667.84
2024-04-09T10:56:09.064Z,100671.19
2024-04-09T10:58:40.109Z,100682.88
2024-04-09T11:01:14.395Z,100678.03
2024-04-09T11:03:42.427Z,100692.88
2024-04-09T11:06:09.993Z,100698.75
2024-04-09T11:08:37.731Z,100691.25
2024-04-09T11:11:05.442Z,100691.38
2024-04-09T11:13:33.512Z,100676.97
2024-04-09T11:16:03.986Z,100702.38
2024-04-09T11:18:32.458Z,100700.00
2024-04-09T11:21:05.118Z,100707.38
2024-04-09T11:23:33.496Z,100721.91
2024-04-09T11:26:03.381Z,100717.75
2024-04-09T11:28:32.529Z,100702.66
2024-04-09T11:31:01.813Z,100683.44
2024-04-09T11:33:29.887Z,100694.63
2024-04-09T11:36:05.468Z,100701.84
2024-04-09T11:38:38.044Z,100696.09
2024-04-09T11:41:05.476Z,100706.00
2024-04-09T11:43:33.050Z,100716.47
2024-04-09T11:46:03.886Z,100726.16
2024-04-09T11:48:31.382Z,100739.72
2024-04-09T11:50:59.009Z,100744.94
2024-04-09T11:53:26.342Z,100759.75
2024-04-09T11:55:55.115Z,100757.13
2024-04-09T11:58:22.634Z,100768.22
2024-04-09T12:00:50.146Z,100771.59
2024-04-09T12:03:17.889Z,100769.03
2024-04-09T12:05:45.711Z,100770.28
2024-04-09T12:08:13.077Z,100769.91
2024-04-09T12:10:40.408Z,100763.69
2024-04-09T12:13:07.758Z,100770.28
2024-04-09T12:15:35.161Z,100781.06
2024-04-09T12:18:02.689Z,100789.22
2024-04-09T12:20:30.200Z,100796.00
2024-04-09T12:22:57.639Z,100791.44
2024-04-09T12:25:25.009Z,100796.75
2024-04-09T12:27:53.443Z,100802.94
2024-04-09T12:30:20.892Z,100796.03
2024-04-09T12:32:48.362Z,100803.56
2024-04-09T12:35:21.645Z,100809.75
2024-04-09T12:37:51.337Z,100801.63
2024-04-09T12:40:18.866Z,100803.28
2024-04-09T12:42:47.321Z,100812.03
2024-04-09T12:45:14.920Z,100807.50
2024-04-09T12:47:42.704Z,100813.75
2024-04-09T12:50:14.808Z,100836.50
2024-04-09T12:52:42.818Z,100829.03
2024-04-09T12:55:11.494Z,100831.03
2024-04-09T12:57:39.006Z,100842.53
2024-04-09T13:00:22.923Z,100837.47
2024-04-09T13:02:57.188Z,100855.66
2024-04-09T13:05:25.044Z,100855.88
2024-04-09T13:07:52.693Z,100867.72
2024-04-09T13:10:21.497Z,100873.78
2024-04-09T13:12:49.275Z,100880.75
2024-04-09T13:16:44.587Z,100899.00
2024-04-09T13:18:04.562Z,100899.00
2024-04-09T13:20:32.153Z,100903.25
2024-04-09T13:22:59.588Z,100900.41
2024-04-09T13:25:26.914Z,100905.88
2024-04-09T13:27:54.251Z,100908.91
2024-04-09T13:30:22.447Z,100913.00
2024-04-09T13:32:50.399Z,100916.19
2024-04-09T13:35:17.922Z,100910.31
2024-04-09T13:37:46.002Z,100913.94
2024-04-09T13:40:14.194Z,100908.69
2024-04-09T13:42:45.446Z,100912.53
2024-04-09T13:45:14.070Z,100913.06
2024-04-09T13:47:42.319Z,100911.25
2024-04-09T13:50:11.372Z,100914.91
2024-04-09T13:52:38.789Z,100915.09
2024-04-09T13:55:09.988Z,100910.31
2024-04-09T13:57:37.611Z,100911.34
2024-04-09T14:00:09.819Z,100911.94
2024-04-09T14:02:37.794Z,100910.91
2024-04-09T14:05:06.373Z,100896.59
2024-04-09T14:07:33.874Z,100901.84
2024-04-09T14:10:01.213Z,100906.53
2024-04-09T14:12:28.739Z,100906.50
2024-04-09T14:14:56.340Z,100908.91
2024-04-09T14:17:24.642Z,100905.09
2024-04-09T14:19:53.900Z,100901.22
2024-04-09T14:22:21.299Z,100891.53
2024-04-09T14:24:48.596Z,100884.59
2024-04-09T14:27:15.926Z,100893.75
2024-04-09T14:29:44.249Z,100889.69
2024-04-09T14:32:11.790Z,100899.84
2024-04-09T14:34:39.177Z,100898.97
2024-04-09T14:37:06.919Z,100901.84
2024-04-09T14:39:34.228Z,100904.25
2024-04-09T14:42:01.499Z,100900.41
2024-04-09T14:44:29.046Z,100904.66
2024-04-09T14:46:56.474Z,100904.88
2024-04-09T14:49:23.950Z,100908.34
2024-04-09T14:51:51.278Z,100904.88
2024-04-09T14:54:18.550Z,100912.38
2024-04-09T14:56:45.876Z,100912.78
2024-04-09T14:59:14.297Z,100925.13
2024-04-09T15:01:42.359Z,100929.34
2024-04-09T15:04:09.745Z,100931.97
2024-04-09T15:06:37.091Z,100940.13
2024-04-09T15:09:08.292Z,100930.16
2024-04-09T15:11:35.853Z,100941.78
2024-04-09T15:14:05.327Z,100942.75
2024-04-09T15:16:33.305Z,100936.91
2024-04-09T15:19:00.657Z,100940.94
2024-04-09T15:21:27.961Z,100964.84
2024-04-09T15:23:55.878Z,100954.31
2024-04-09T15:26:23.268Z,100969.53
2024-04-09T15:28:50.699Z,100965.47
2024-04-09T15:31:18.035Z,100971.34
2024-04-09T15:33:45.536Z,100964.06
2024-04-09T15:36:13.183Z,100972.34
2024-04-09T15:38:40.572Z,100969.53
2024-04-09T15:41:08.116Z,100962.66
2024-04-09T15:43:35.520Z,100968.94
2024-04-09T15:46:02.846Z,100975.81
2024-04-09T15:48:30.649Z,100975.59
2024-04-09T15:50:58.062Z,100975.56
2024-04-09T15:53:26.003Z,100988.75
2024-04-09T15:55:54.195Z,100978.22
2024-04-09T15:58:21.560Z,100978.22
2024-04-09T16:00:49.147Z,100977.84
2024-04-09T16:03:17.237Z,100969.69
2024-04-09T16:05:46.429Z,100967.06
2024-04-09T16:08:14.753Z,100978.78
2024-04-09T16:10:42.205Z,100986.06
2024-04-09T16:13:09.539Z,100995.25
2024-04-09T16:15:36.810Z,100981.34
2024-04-09T16:18:04.390Z,100995.94
2024-04-09T16:20:31.930Z,100985.31
2024-04-09T16:22:59.347Z,100987.09
2024-04-09T16:25:26.718Z,100988.91
2024-04-09T16:27:55.165Z,100991.13
2024-04-09T16:30:26.412Z,100991.66
2024-04-09T16:32:56.645Z,101000.53
2024-04-09T16:35:25.978Z,100996.75
2024-04-09T16:37:53.489Z,101005.81
2024-04-09T16:40:20.811Z,101012.63
2024-04-09T16:42:48.118Z,101016.09
2024-04-09T16:45:15.477Z,101024.16
2024-04-09T16:47:44.187Z,101029.03
2024-04-09T16:50:13.382Z,101027.88
2024-04-09T16:52:40.819Z,101036.66
2024-04-09T16:55:08.239Z,101037.53
2024-04-09T16:57:42.150Z,101036.66
2024-04-09T17:00:13.218Z,101043.72
2024-04-09T17:02:40.609Z,101049.22
2024-04-09T17:05:09.791Z,101039.31
2024-04-09T17:07:37.197Z,101050.09
2024-04-09T17:10:11.303Z,101046.22
2024-04-09T17:12:39.417Z,101051.28
2024-04-09T17:15:07.260Z,101049.28
2024-04-09T17:17:35.171Z,101049.56
2024-04-09T17:20:03.138Z,101049.50
2024-04-09T17:22:30.660Z,101056.72
2024-04-09T17:24:58.324Z,101063.84
2024-04-09T17:27:26.268Z,101060.00
2024-04-09T17:29:53.627Z,101064.25
2024-04-09T17:32:21.055Z,101060.44
2024-04-09T17:34:48.426Z,101072.34
2024-04-09T17:37:15.827Z,101079.72
2024-04-09T17:39:43.274Z,101078.31
2024-04-09T17:42:10.607Z,101085.78
2024-04-09T17:44:38.875Z,101082.38
2024-04-09T17:47:06.483Z,101085.34
2024-04-09T17:49:33.831Z,101097.94
2024-04-09T17:52:01.183Z,101094.31
2024-04-09T17:54:28.537Z,101094.19
2024-04-09T17:56:55.822Z,101093.63
2024-04-09T17:59:23.265Z,101093.72
2024-04-09T18:01:50.714Z,101100.19
2024-04-09T18:04:18.268Z,101099.06
2024-04-09T18:06:46.620Z,101097.94
2024-04-09T18:09:16.074Z,101095.19
2024-04-09T18:11:43.506Z,101094.78
2024-04-09T18:14:11.352Z,101098.53
2024-04-09T18:16:38.907Z,101104.25
2024-04-09T18:19:07.089Z,101107.25
2024-04-09T18:21:34.640Z,101100.56
2024-04-09T18:24:01.974Z,101109.06
2024-04-09T18:26:29.320Z,101109.06
2024-04-09T18:28:56.878Z,101120.84
2024-04-09T18:31:24.226Z,101122.84
2024-04-09T18:33:52.020Z,101131.31
2024-04-09T18:36:19.490Z,101133.47
2024-04-09T18:38:49.524Z,101136.41
2024-04-09T18:41:17.363Z,101131.66
2024-04-09T18:43:45.479Z,101129.84
2024-04-09T18:46:13.180Z,101132.41
2024-04-09T18:48:40.619Z,101147.25
2024-04-09T18:51:11.969Z,101142.38
2024-04-09T18:53:39.457Z,101144.94
2024-04-09T18:56:06.989Z,101146.94
2024-04-09T18:58:35.408Z,101150.44
2024-04-09T19:01:03.484Z,101165.13
2024-04-09T19:03:30.881Z,101151.19
2024-04-09T19:05:58.558Z,101158.97
2024-04-09T19:08:26.035Z,101171.41
2024-04-09T19:10:53.477Z,101163.09
2024-04-09T19:13:20.938Z,101164.31
2024-04-09T19:15:49.132Z,101169.91
2024-04-09T19:18:16.551Z,101173.94
2024-04-09T19:20:44.708Z,101172.00
2024-04-09T19:23:12.034Z,101175.84
2024-04-09T19:25:39.401Z,101176.47
2024-04-09T19:28:06.979Z,101179.75
2024-04-09T19:30:34.272Z,101188.09
2024-04-09T19:33:01.700Z,101179.06
2024-04-09T19:35:29.255Z,101187.66
2024-04-09T19:37:56.800Z,101178.75
2024-04-09T19:40:24.236Z,101182.72
2024-04-09T19:42:52.236Z,101185.38
2024-04-09T19:45:20.459Z,101184.81
2024-04-09T19:47:47.933Z,101182.72
2024-04-09T19:50:16.971Z,101182.69
2024-04-09T19:52:44.360Z,101197.13
2024-04-09T19:55:11.800Z,101198.56
2024-04-09T19:57:40.610Z,101199.75
2024-04-09T20:00:11.278Z,101205.53
2024-04-09T20:02:40.787Z,101200.75
2024-04-09T20:05:11.616Z,101209.19
2024-04-09T20:07:38.966Z,101211.19
2024-04-09T20:10:08.228Z,101215.81
2024-04-09T20:12:38.655Z,101216.66
2024-04-09T20:15:06.447Z,101201.63
2024-04-09T20:17:34.088Z,101189.53
2024-04-09T20:20:01.575Z,101189.28
2024-04-09T20:22:28.963Z,101203.41
2024-04-09T20:24:56.619Z,101205.31
2024-04-09T20:27:23.930Z,101218.34
2024-04-09T20:29:51.260Z,101219.44
2024-04-09T20:32:19.155Z,101211.91
2024-04-09T20:34:46.652Z,101221.25
2024-04-09T20:37:15.048Z,101220.38
2024-04-09T20:39:42.375Z,101226.34
2024-04-09T20:42:10.201Z,101220.97
2024-04-09T20:44:38.899Z,101218.53
2024-04-09T20:47:06.410Z,101230.84
2024-04-09T20:49:34.435Z,101239.81
2024-04-09T20:52:02.113Z,101255.03
2024-04-09T20:54:29.442Z,101258.06
2024-04-09T20:56:56.916Z,101252.81
2024-04-09T20:59:24.318Z,101250.31
2024-04-09T21:01:51.716Z,101253.56
2024-04-09T21:04:19.104Z,101254.19
2024-04-09T21:06:46.689Z,101264.59
2024-04-09T21:09:14.833Z,101252.66
2024-04-09T21:11:42.478Z,101270.19
2024-04-09T21:14:09.995Z,101265.41
2024-04-09T21:16:37.517Z,101277.06
2024-04-09T21:19:04.838Z,101278.66
2024-04-09T21:21:32.251Z,101288.81
2024-04-09T21:23:59.590Z,101277.75
2024-04-09T21:26:29.952Z,101295.84
2024-04-09T21:28:57.473Z,101306.59
2024-04-09T21:31:24.934Z,101310.50
2024-04-09T21:33:53.018Z,101308.84
2024-04-09T21:36:20.560Z,101307.31
2024-04-09T21:38:47.890Z,101310.50
2024-04-09T21:41:15.271Z,101303.44
2024-04-09T21:43:42.594Z,101306.72
2024-04-09T21:46:09.892Z,101300.50
2024-04-09T21:48:37.416Z,101311.63
2024-04-09T21:51:05.181Z,101303.63
2024-04-09T21:53:33.040Z,101310.34
2024-04-09T21:56:00.494Z,101320.69
2024-04-09T21:58:29.348Z,101316.81
2024-04-09T22:00:58.111Z,101312.72
2024-04-09T22:03:25.775Z,101313.31
2024-04-09T22:05:53.563Z,101310.34
2024-04-09T22:08:20.962Z,101307.06
2024-04-09T22:10:48.393Z,101308.66
2024-04-09T22:13:15.832Z,101315.19
2024-04-09T22:15:43.150Z,101312.31
2024-04-09T22:18:11.459Z,101324.13
2024-04-09T22:20:40.102Z,101326.25
2024-04-09T22:23:13.638Z,101335.16
2024-04-09T22:25:42.791Z,101344.28
2024-04-09T22:28:10.360Z,101352.47
2024-04-09T22:30:40.864Z,101349.19
2024-04-09T22:33:08.936Z,101348.13
2024-04-09T22:35:36.751Z,101354.84
2024-04-09T22:38:04.352Z,101364.06
2024-04-09T22:40:31.793Z,101368.47
2024-04-09T22:42:59.193Z,101368.94
2024-04-09T22:45:26.683Z,101374.25
2024-04-09T22:47:54.203Z,101384.06
2024-04-09T22:50:21.843Z,101375.53
2024-04-09T22:52:49.293Z,101381.28
2024-04-09T22:55:16.951Z,101381.78
2024-04-09T22:57:44.270Z,101384.22
2024-04-09T23:00:13.394Z,101389.81
2024-04-09T23:02:41.258Z,101386.69
2024-04-09T23:05:11.427Z,101384.09
2024-04-09T23:07:38.983Z,101385.88
2024-04-09T23:10:06.700Z,101392.66
2024-04-09T23:12:34.690Z,101396.75
2024-04-09T23:15:02.033Z,101402.31
2024-04-09T23:17:29.636Z,101408.72
2024-04-09T23:19:57.468Z,101402.31
2024-04-09T23:22:24.809Z,101408.88
2024-04-09T23:24:52.102Z,101417.50
2024-04-09T23:27:19.499Z,101411.34
2024-04-09T23:29:46.806Z,101420.03
2024-04-09T23:32:14.120Z,101417.59
2024-04-09T23:34:41.607Z,101412.50
2024-04-09T23:37:08.888Z,101419.69
2024-04-09T23:39:36.201Z,101427.06
2024-04-09T23:42:05.478Z,101416.56
2024-04-09T23:44:34.365Z,101435.91
2024-04-09T23:47:03.123Z,101431.59
2024-04-09T23:49:31.239Z,101426.53
2024-04-09T23:51:58.612Z,101425.59
2024-04-09T23:54:26.126Z,101422.81
2024-04-09T23:56:53.590Z,101420.28
2024-04-09T23:59:21.107Z,101418.38
